Time;durP1;ratioP1;P1;durP2;ratioP2;P2;SDS_P1;SDS_P2;PMS_P1;PMS_P2;Temp;Humidity;BMP_temperature;BMP_pressure;BME280_temperature;BME280_humidity;BME280_pressure;Samples;Min_cycle;Max_cycle;Signal;HPM_P1;HPM_P2
2023/08/29 00:00:46;;;;;;;9.63;3.20;;;11.80;99.90;;;;;;6245030;23;20024;-83
2023/08/29 00:03:11;;;;;;;7.85;2.80;;;12.90;99.90;;;;;;6244433;23;20012;-82
2023/08/29 00:05:38;;;;;;;9.25;3.00;;;11.80;99.90;;;;;;6244079;23;20008;-83
2023/08/29 00:08:05;;;;;;;7.88;3.00;;;13.00;99.90;;;;;;6243533;23;20026;-83
2023/08/29 00:10:31;;;;;;;9.00;3.42;;;11.70;99.90;;;;;;6244597;23;20051;-82
2023/08/29 00:12:57;;;;;;;11.30;3.75;;;12.90;99.90;;;;;;6244048;23;20012;-83
2023/08/29 00:15:22;;;;;;;13.40;3.83;;;12.10;99.90;;;;;;6242494;23;20020;-83
2023/08/29 00:17:51;;;;;;;8.55;3.10;;;11.70;99.90;;;;;;6244049;23;20012;-83
2023/08/29 00:20:17;;;;;;;8.27;3.20;;;11.70;99.90;;;;;;6243805;23;20055;-82
2023/08/29 00:23:10;;;;;;;20.58;3.70;;;11.60;99.90;;;;;;6245075;23;20027;-83
2023/08/29 00:25:36;;;;;;;8.07;3.08;;;11.10;99.90;;;;;;6244970;23;20020;-83
2023/08/29 00:28:03;;;;;;;11.35;3.65;;;11.50;99.90;;;;;;6245402;22;20018;-83
2023/08/29 00:30:39;;;;;;;12.73;3.40;;;11.50;99.90;;;;;;6244045;23;20095;-83
2023/08/29 00:33:05;;;;;;;12.43;4.53;;;12.60;99.90;;;;;;6246230;22;20008;-83
2023/08/29 00:35:37;;;;;;;19.15;3.38;;;11.50;99.90;;;;;;6242727;23;20016;-83
2023/08/29 00:39:06;;;;;;;9.20;3.05;;;12.60;99.90;;;;;;6243858;23;20008;-83
2023/08/29 00:41:57;;;;;;;11.65;3.47;;;11.60;99.90;;;;;;6244719;23;20016;-83
2023/08/29 00:44:35;;;;;;;9.02;3.40;;;11.50;99.90;;;;;;6243022;23;20012;-83
2023/08/29 00:47:04;;;;;;;9.50;3.88;;;12.50;99.90;;;;;;6243885;23;20024;-83
2023/08/29 00:49:36;;;;;;;10.68;3.80;;;11.40;99.90;;;;;;6242441;23;20515;-83
2023/08/29 00:52:03;;;;;;;8.32;3.35;;;11.50;99.90;;;;;;6245259;22;20484;-84
2023/08/29 00:54:30;;;;;;;9.90;3.40;;;11.40;99.90;;;;;;6243962;23;20016;-83
2023/08/29 00:56:56;;;;;;;10.50;3.63;;;12.50;99.90;;;;;;6243970;23;20545;-82
2023/08/29 00:59:22;;;;;;;8.32;3.40;;;11.40;99.90;;;;;;6245291;23;20058;-83
2023/08/29 01:01:48;;;;;;;8.27;3.33;;;12.70;99.90;;;;;;6242827;23;20066;-84
2023/08/29 01:04:13;;;;;;;8.40;3.63;;;11.50;99.90;;;;;;6243027;23;20023;-84
2023/08/29 01:06:48;;;;;;;9.90;3.40;;;11.30;99.90;;;;;;6243093;23;20016;-83
2023/08/29 01:09:14;;;;;;;9.30;3.90;;;11.30;99.90;;;;;;6243866;23;20016;-83
2023/08/29 01:12:10;;;;;;;10.32;3.60;;;11.30;99.90;;;;;;6242209;23;20024;-84
2023/08/29 01:14:54;;;;;;;7.50;3.15;;;11.30;99.90;;;;;;6243401;23;20012;-84
2023/08/29 01:17:32;;;;;;;;;;;11.30;99.90;;;;;;6242505;23;20349;-84
2023/08/29 01:19:58;;;;;;;8.48;3.15;;;11.90;99.90;;;;;;6243329;23;19994;-84
2023/08/29 01:22:32;;;;;;;9.40;3.40;;;11.30;99.90;;;;;;6245783;22;20020;-84
2023/08/29 01:25:18;;;;;;;8.55;3.22;;;11.30;99.90;;;;;;6243839;23;20012;-84
2023/08/29 01:27:47;;;;;;;8.40;3.40;;;11.30;99.90;;;;;;6243363;23;20027;-84
2023/08/29 01:30:14;;;;;;;8.57;3.13;;;12.40;99.90;;;;;;6245454;23;20020;-84
2023/08/29 01:32:40;;;;;;;9.60;3.45;;;12.30;99.90;;;;;;6242643;23;20047;-84
2023/08/29 01:35:07;;;;;;;10.75;3.72;;;11.20;99.90;;;;;;6243220;23;20020;-84
2023/08/29 01:37:32;;;;;;;9.00;3.42;;;11.20;99.90;;;;;;6242837;23;20008;-84
2023/08/29 01:39:58;;;;;;;8.30;3.28;;;11.20;99.90;;;;;;6243744;23;20506;-84
2023/08/29 01:42:24;;;;;;;9.20;3.40;;;12.30;99.90;;;;;;6243935;23;20012;-84
2023/08/29 01:44:50;;;;;;;8.27;3.13;;;11.10;99.90;;;;;;6244157;23;20061;-84
2023/08/29 01:47:24;;;;;;;8.75;3.70;;;11.10;99.90;;;;;;6246762;22;20055;-82
2023/08/29 01:49:53;;;;;;;8.85;3.42;;;12.00;99.90;;;;;;6245271;23;20326;-82
2023/08/29 01:52:18;;;;;;;9.15;3.38;;;12.10;99.90;;;;;;6244647;23;20332;-82
2023/08/29 01:54:44;;;;;;;9.75;3.60;;;11.40;99.90;;;;;;6245452;23;20020;-83
2023/08/29 01:57:12;;;;;;;10.18;3.00;;;11.10;99.90;;;;;;6247379;22;20012;-82
2023/08/29 01:59:38;;;;;;;9.40;3.55;;;11.60;99.90;;;;;;6244534;23;20020;-82
2023/08/29 02:02:04;;;;;;;9.93;3.30;;;11.00;99.90;;;;;;6246824;22;20095;-83
2023/08/29 02:04:35;;;;;;;9.75;3.40;;;11.00;99.90;;;;;;6245708;23;20040;-83
2023/08/29 02:07:01;;;;;;;9.68;3.58;;;11.00;99.90;;;;;;6244127;23;20020;-83
2023/08/29 02:09:33;;;;;;;9.52;3.50;;;11.00;99.90;;;;;;6247059;23;20031;-82
2023/08/29 02:11:58;;;;;;;9.82;3.28;;;11.80;99.90;;;;;;6245268;23;20016;-83
2023/08/29 02:14:24;;;;;;;11.40;3.70;;;12.00;99.90;;;;;;6244123;23;20012;-83
2023/08/29 02:17:05;;;;;;;8.38;3.30;;;10.90;99.90;;;;;;6246859;23;20024;-83
2023/08/29 02:19:43;;;;;;;9.32;3.30;;;10.90;99.90;;;;;;6246370;23;20433;-83
2023/08/29 02:22:09;;;;;;;8.50;3.30;;;10.90;99.90;;;;;;6246235;23;20023;-83
2023/08/29 02:24:35;;;;;;;9.35;3.50;;;10.90;99.90;;;;;;6247151;22;20044;-83
2023/08/29 02:27:00;;;;;;;9.13;3.38;;;10.80;99.90;;;;;;6246377;22;20344;-83
2023/08/29 02:29:38;;;;;;;8.95;3.63;;;12.10;99.90;;;;;;6245181;23;20337;-83
2023/08/29 02:32:04;;;;;;;10.40;3.17;;;12.00;99.90;;;;;;6245744;23;20441;-83
2023/08/29 02:34:30;;;;;;;7.90;3.28;;;10.80;99.90;;;;;;6246287;23;20016;-80
2023/08/29 02:36:55;;;;;;;9.68;3.00;;;10.80;99.90;;;;;;6258874;22;20015;-83
2023/08/29 02:39:21;;;;;;;9.02;3.10;;;11.70;99.90;;;;;;6250599;22;20073;-83
2023/08/29 02:41:47;;;;;;;8.75;3.30;;;10.70;99.90;;;;;;6276652;22;20324;-83
2023/08/29 02:44:13;;;;;;;9.43;3.35;;;11.90;99.90;;;;;;6277735;22;20061;-83
2023/08/29 02:46:39;;;;;;;9.20;3.10;;;12.00;99.90;;;;;;6249732;22;20007;-83
2023/08/29 02:49:04;;;;;;;8.10;3.20;;;11.90;99.90;;;;;;6276951;22;20008;-83
2023/08/29 02:51:30;;;;;;;8.98;3.10;;;10.70;99.90;;;;;;6249632;22;20025;-83
2023/08/29 02:53:56;;;;;;;9.23;3.30;;;10.70;99.90;;;;;;6276759;22;20091;-83
2023/08/29 02:56:27;;;;;;;8.95;3.50;;;11.30;99.90;;;;;;6276846;22;20073;-84
2023/08/29 02:58:54;;;;;;;8.68;3.28;;;11.60;99.90;;;;;;6249612;22;20130;-83
2023/08/29 03:01:20;;;;;;;9.52;3.30;;;10.60;99.90;;;;;;6277541;22;20023;-83
2023/08/29 03:03:45;;;;;;;8.57;3.50;;;10.70;99.90;;;;;;6276327;22;20077;-83
2023/08/29 03:06:20;;;;;;;9.80;3.35;;;11.80;99.90;;;;;;6249695;22;20019;-83
2023/08/29 03:08:49;;;;;;;8.68;3.30;;;10.60;99.90;;;;;;6249428;22;20332;-83
2023/08/29 03:11:30;;;;;;;9.30;3.17;;;10.60;99.90;;;;;;6276736;22;20017;-83
2023/08/29 03:13:55;;;;;;;8.27;3.17;;;10.60;99.90;;;;;;6249525;22;20012;-83
2023/08/29 03:16:21;;;;;;;9.13;3.30;;;11.50;99.90;;;;;;6276456;22;20023;-83
2023/08/29 03:18:53;;;;;;;7.63;3.03;;;11.30;99.90;;;;;;6276558;22;20152;-83
2023/08/29 03:21:19;;;;;;;9.95;3.50;;;11.80;99.90;;;;;;6249939;22;20373;-83
2023/08/29 03:23:45;;;;;;;8.90;3.20;;;10.50;99.90;;;;;;6248662;22;20012;-83
2023/08/29 03:26:10;;;;;;;10.05;3.40;;;10.50;99.90;;;;;;6250296;22;20022;-82
2023/08/29 03:28:37;;;;;;;7.82;3.28;;;11.80;99.90;;;;;;6276655;22;20053;-83
2023/08/29 03:31:14;;;;;;;8.40;3.38;;;10.40;99.90;;;;;;6248643;22;20008;-83
2023/08/29 03:33:40;;;;;;;9.18;3.45;;;11.40;99.90;;;;;;6249362;22;20020;-83
2023/08/29 03:36:07;;;;;;;8.57;3.22;;;11.70;99.90;;;;;;6276924;22;20019;-84
2023/08/29 03:38:40;;;;;;;9.80;3.65;;;10.10;99.90;;;;;;6248685;22;20024;-83
2023/08/29 03:41:06;;;;;;;10.50;3.50;;;10.30;99.90;;;;;;6249752;22;20016;-83
2023/08/29 03:43:48;;;;;;;9.13;3.60;;;10.30;99.90;;;;;;6249307;22;20091;-83
2023/08/29 03:46:13;;;;;;;8.55;3.20;;;10.30;99.90;;;;;;6248999;22;20047;-83
2023/08/29 03:48:40;;;;;;;10.27;3.38;;;10.30;99.90;;;;;;6276899;22;20024;-83
2023/08/29 03:51:06;;;;;;;13.20;3.70;;;11.00;99.90;;;;;;6248434;22;20062;-83
2023/08/29 03:53:38;;;;;;;11.55;4.00;;;11.30;99.90;;;;;;6248754;22;20012;-83
2023/08/29 03:56:08;;;;;;;11.95;4.28;;;10.30;99.90;;;;;;6249572;22;20068;-83
2023/08/29 03:58:35;;;;;;;10.82;3.70;;;11.30;99.90;;;;;;6248325;22;20336;-83
2023/08/29 04:01:03;;;;;;;11.05;3.53;;;11.20;99.90;;;;;;6248574;22;20377;-83
2023/08/29 04:03:30;;;;;;;10.98;3.75;;;10.30;99.90;;;;;;6276817;22;20035;-83
2023/08/29 04:06:11;;;;;;;8.77;3.25;;;10.30;99.90;;;;;;6247400;22;20011;-83
2023/08/29 04:08:37;;;;;;;9.20;3.47;;;11.30;99.90;;;;;;6275475;22;20325;-83
2023/08/29 04:11:03;;;;;;;9.23;3.20;;;11.40;99.90;;;;;;6276322;22;20073;-83
2023/08/29 04:13:29;;;;;;;9.45;3.13;;;11.50;99.90;;;;;;6248638;22;20022;-84
2023/08/29 04:16:35;;;;;;;11.30;3.40;;;11.10;99.90;;;;;;6248744;22;20094;-83
2023/08/29 04:19:01;;;;;;;9.93;3.53;;;10.10;99.90;;;;;;6152907;23;20029;-83
2023/08/29 04:21:27;;;;;;;9.07;3.80;;;10.90;99.90;;;;;;6127449;23;20351;-84
2023/08/29 04:23:52;;;;;;;12.07;3.80;;;10.10;99.90;;;;;;6186926;22;20153;-83
2023/08/29 04:26:18;;;;;;;10.27;3.90;;;10.10;99.90;;;;;;6249306;22;20026;-83
2023/08/29 04:28:47;;;;;;;10.93;4.20;;;10.10;99.90;;;;;;6247811;22;20114;-83
2023/08/29 04:31:28;;;;;;;9.95;3.90;;;10.20;99.90;;;;;;6248415;22;20026;-83
2023/08/29 04:33:53;;;;;;;11.93;4.47;;;10.10;99.90;;;;;;6274420;22;20023;-83
2023/08/29 04:36:25;;;;;;;11.75;4.13;;;10.10;99.90;;;;;;6243832;23;20024;-83
2023/08/29 04:38:51;;;;;;;11.10;4.30;;;10.10;99.90;;;;;;6243553;23;20008;-83
2023/08/29 04:41:17;;;;;;;10.32;4.25;;;10.10;99.90;;;;;;6245255;23;20470;-83
2023/08/29 04:43:43;;;;;;;11.68;4.30;;;10.10;99.90;;;;;;6243792;23;20009;-83
2023/08/29 04:46:20;;;;;;;10.30;4.05;;;10.90;99.90;;;;;;6243681;23;20099;-83
2023/08/29 04:48:46;;;;;;;10.27;4.03;;;11.00;99.90;;;;;;6242563;22;20012;-83
2023/08/29 04:51:12;;;;;;;9.55;4.00;;;10.00;99.90;;;;;;6245151;23;20075;-83
2023/08/29 04:53:37;;;;;;;12.52;4.20;;;10.00;99.90;;;;;;6243147;23;20010;-84
2023/08/29 04:56:04;;;;;;;10.60;4.18;;;10.90;99.90;;;;;;6243230;23;20428;-84
2023/08/29 04:58:30;;;;;;;10.88;4.13;;;10.00;99.90;;;;;;6244373;23;20020;-83
2023/08/29 05:00:57;;;;;;;10.05;4.00;;;10.80;99.90;;;;;;6245398;22;20468;-83
2023/08/29 05:03:23;;;;;;;9.75;4.25;;;10.30;99.90;;;;;;6245505;23;20020;-83
2023/08/29 05:05:51;;;;;;;11.85;4.50;;;10.00;99.90;;;;;;6243872;23;20024;-83
2023/08/29 05:08:17;;;;;;;13.38;4.50;;;10.00;99.90;;;;;;6245536;22;20084;-84
2023/08/29 05:10:43;;;;;;;12.48;4.20;;;10.00;99.90;;;;;;6242366;23;20054;-83
2023/08/29 05:13:09;;;;;;;9.98;4.20;;;10.00;99.90;;;;;;6243722;23;20328;-83
2023/08/29 05:15:42;;;;;;;10.00;4.05;;;11.20;99.90;;;;;;6245111;22;20065;-83
2023/08/29 05:18:16;;;;;;;10.23;4.13;;;10.80;99.90;;;;;;6245211;22;20012;-83
2023/08/29 05:20:43;;;;;;;9.60;4.00;;;10.90;99.90;;;;;;6243306;23;20066;-83
2023/08/29 05:23:09;;;;;;;10.38;3.90;;;10.10;99.90;;;;;;6244438;22;20444;-83
2023/08/29 05:25:35;;;;;;;9.68;3.90;;;10.10;99.90;;;;;;6245228;22;20012;-83
2023/08/29 05:28:00;;;;;;;10.80;4.50;;;10.10;99.90;;;;;;6243708;23;20047;-83
2023/08/29 05:30:26;;;;;;;10.95;4.20;;;10.10;99.90;;;;;;6242784;23;20445;-83
2023/08/29 05:32:54;;;;;;;9.73;4.13;;;10.10;99.90;;;;;;6245354;23;20377;-83
2023/08/29 05:35:20;;;;;;;10.95;4.25;;;10.10;99.90;;;;;;6243641;23;20448;-83
2023/08/29 05:37:45;;;;;;;12.27;4.20;;;11.10;99.90;;;;;;6267697;22;20018;-83
2023/08/29 05:40:11;;;;;;;9.73;4.13;;;11.00;99.90;;;;;;6248667;22;20016;-83
2023/08/29 05:42:52;;;;;;;12.15;4.70;;;9.80;99.90;;;;;;6248712;22;20061;-83
2023/08/29 05:45:17;;;;;;;13.85;4.68;;;10.30;99.90;;;;;;6275127;22;20092;-83
2023/08/29 05:47:43;;;;;;;11.55;4.97;;;10.30;99.90;;;;;;6248583;22;20039;-83
2023/08/29 05:50:09;;;;;;;11.38;4.72;;;11.50;99.90;;;;;;6275593;22;20019;-83
2023/08/29 05:52:35;;;;;;;10.48;4.72;;;10.50;99.90;;;;;;6274817;22;20016;-83
2023/08/29 05:55:01;;;;;;;11.02;4.75;;;10.60;99.90;;;;;;6248408;22;20086;-83
2023/08/29 05:57:26;;;;;;;10.90;4.50;;;10.60;99.90;;;;;;6248854;22;20051;-83
2023/08/29 05:59:53;;;;;;;12.20;4.90;;;10.80;99.90;;;;;;6247135;22;20020;-84
2023/08/29 06:02:32;;;;;;;11.90;5.13;;;11.70;99.90;;;;;;6275556;22;20496;-83
2023/08/29 06:04:58;;;;;;;12.43;5.20;;;10.90;99.90;;;;;;6274420;22;20448;-83
2023/08/29 06:07:33;;;;;;;10.75;5.35;;;12.00;99.90;;;;;;6275959;22;20033;-84
2023/08/29 06:09:59;;;;;;;15.90;4.90;;;11.90;99.90;;;;;;6276274;22;20016;-84
2023/08/29 06:12:29;;;;;;;12.45;5.10;;;11.20;99.90;;;;;;6247589;22;20322;-85
2023/08/29 06:14:55;;;;;;;11.80;5.22;;;11.20;99.90;;;;;;6275338;22;20020;-84
2023/08/29 06:17:22;;;;;;;12.65;5.32;;;11.40;99.90;;;;;;6276154;22;20019;-85
2023/08/29 06:19:48;;;;;;;12.65;5.32;;;12.60;99.90;;;;;;6273999;22;20015;-83
2023/08/29 06:22:13;;;;;;;11.05;5.55;;;11.50;99.90;;;;;;6248221;22;20012;-84
2023/08/29 06:24:46;;;;;;;12.02;5.75;;;12.90;99.90;;;;;;6248236;22;20324;-84
2023/08/29 06:27:11;;;;;;;11.77;5.28;;;11.80;99.90;;;;;;6274963;22;20007;-83
2023/08/29 06:29:37;;;;;;;10.32;5.15;;;12.20;99.90;;;;;;6248040;22;20051;-83
2023/08/29 06:32:14;;;;;;;12.15;5.25;;;12.10;99.90;;;;;;6247934;22;20089;-82
2023/08/29 06:34:39;;;;;;;12.07;4.93;;;13.40;99.90;;;;;;6248989;22;20020;-83
2023/08/29 06:37:05;;;;;;;13.15;5.05;;;12.30;99.90;;;;;;6276932;22;20015;-83
2023/08/29 06:39:31;;;;;;;11.20;4.70;;;12.40;99.90;;;;;;6277776;22;20065;-84
2023/08/29 06:41:57;;;;;;;11.20;5.40;;;12.50;99.90;;;;;;6248634;22;20332;-84
2023/08/29 06:44:22;;;;;;;11.93;5.25;;;12.60;99.90;;;;;;6249908;22;20364;-84
2023/08/29 06:46:48;;;;;;;10.90;4.70;;;12.70;99.90;;;;;;6249593;22;20359;-84
2023/08/29 06:49:17;;;;;;;12.82;4.70;;;12.80;99.90;;;;;;6249561;22;20074;-83
2023/08/29 06:51:42;;;;;;;10.75;4.95;;;12.90;99.90;;;;;;6276562;22;20016;-83
2023/08/29 06:54:08;;;;;;;10.13;4.20;;;13.00;99.90;;;;;;6249981;22;20023;-84
2023/08/29 06:56:33;;;;;;;11.35;4.05;;;13.90;99.90;;;;;;6248756;22;20028;-84
2023/08/29 06:58:59;;;;;;;10.48;4.07;;;13.80;99.90;;;;;;6250202;22;20041;-84
2023/08/29 07:01:25;;;;;;;10.13;4.40;;;14.00;99.90;;;;;;6276410;22;20091;-84
2023/08/29 07:03:52;;;;;;;12.55;4.05;;;13.40;99.90;;;;;;6249654;22;20377;-84
2023/08/29 07:06:18;;;;;;;8.90;3.75;;;13.40;99.90;;;;;;6250005;22;20095;-84
2023/08/29 07:08:43;;;;;;;9.52;3.88;;;14.20;99.90;;;;;;6276227;22;20047;-84
2023/08/29 07:11:09;;;;;;;11.00;3.72;;;14.20;99.90;;;;;;6250005;22;20026;-84
2023/08/29 07:13:34;;;;;;;10.27;3.83;;;14.00;99.90;;;;;;6276912;22;20016;-84
2023/08/29 07:16:00;;;;;;;10.68;3.90;;;13.80;99.90;;;;;;6248863;22;20019;-84
2023/08/29 07:18:41;;;;;;;9.82;3.58;;;13.90;99.90;;;;;;6246316;22;20043;-84
2023/08/29 07:21:07;;;;;;;9.70;3.70;;;14.00;99.90;;;;;;6275030;22;20016;-81
2023/08/29 07:23:33;;;;;;;9.27;3.60;;;14.00;99.90;;;;;;6276239;22;20090;-83
2023/08/29 07:26:05;;;;;;;13.15;4.40;;;14.10;99.90;;;;;;6279334;22;20011;-84
2023/08/29 07:28:31;;;;;;;9.55;3.67;;;14.20;99.90;;;;;;6251601;22;20023;-83
2023/08/29 07:30:58;;;;;;;9.77;3.33;;;14.30;99.90;;;;;;6249250;22;20016;-87
2023/08/29 07:33:23;;;;;;;9.02;3.20;;;15.30;99.90;;;;;;6250526;22;20015;-84
2023/08/29 07:35:49;;;;;;;10.68;3.20;;;14.40;99.90;;;;;;6276508;22;20536;-84
2023/08/29 07:38:45;;;;;;;8.90;3.05;;;14.50;99.90;;;;;;6247385;22;20105;-84
2023/08/29 07:41:24;;;;;;;8.05;2.80;;;13.80;99.90;;;;;;6215124;22;20448;-84
2023/08/29 07:43:49;;;;;;;9.48;2.95;;;14.60;99.90;;;;;;6246252;22;20317;-84
2023/08/29 07:46:15;;;;;;;8.02;2.60;;;14.80;99.90;;;;;;6274657;22;20026;-84
2023/08/29 07:52:29;;;;;;;8.63;2.70;;;15.00;99.90;;;;;;6202113;22;20073;-87
2023/08/29 07:55:07;;;;;;;8.18;2.50;;;15.20;99.90;;;;;;6248802;22;20111;-85
2023/08/29 07:57:48;;;;;;;8.20;2.60;;;15.30;99.90;;;;;;6248318;22;20011;-87
2023/08/29 08:00:15;;;;;;;7.15;2.40;;;16.30;99.90;;;;;;6275527;22;20019;-83
2023/08/29 08:02:50;;;;;;;7.35;2.25;;;16.20;99.90;;;;;;6275880;22;20078;-84
2023/08/29 08:05:25;;;;;;;7.60;2.58;;;15.90;99.90;;;;;;6247209;22;20038;-84
2023/08/29 08:07:51;;;;;;;6.88;2.22;;;16.00;99.90;;;;;;6248389;22;20042;-83
2023/08/29 08:10:28;;;;;;;5.03;2.03;;;16.20;99.90;;;;;;6249216;22;20020;-85
2023/08/29 08:13:16;;;;;;;6.15;2.00;;;16.30;99.90;;;;;;6275563;22;20019;-84
2023/08/29 09:44:23;;;;;;;;;;;;;;;;;;;;;
2023/08/29 09:59:54;;;;;;;;;;;;;;;;;;;;;
2023/08/29 10:03:00;;;;;;;;;;;;;;;;;;;;;
2023/08/29 10:11:21;;;;;;;;;;;;;;;;;;;;;
2023/08/29 10:34:03;;;;;;;3.83;1.50;;;19.90;99.90;;;;;;6274851;22;20085;-85
2023/08/29 10:37:13;;;;;;;3.25;1.35;;;20.00;99.90;;;;;;6249728;22;20085;-85
2023/08/29 10:47:39;;;;;;;4.55;1.50;;;19.20;99.90;;;;;;5956499;24;20020;-86
2023/08/29 10:50:46;;;;;;;3.28;1.40;;;19.40;99.90;;;;;;5958134;24;20024;-84
2023/08/29 10:57:29;;;;;;;2.97;1.30;;;19.50;99.90;;;;;;5989030;23;20057;-84
2023/08/29 10:59:55;;;;;;;3.70;1.40;;;19.70;99.90;;;;;;6105182;23;20404;-84
2023/08/29 11:02:31;;;;;;;5.80;1.60;;;19.80;99.90;;;;;;6182560;23;20021;-84
2023/08/29 11:05:03;;;;;;;7.47;1.63;;;19.90;99.90;;;;;;6158547;23;20465;-84
2023/08/29 11:07:29;;;;;;;4.82;1.73;;;19.80;99.90;;;;;;6181715;22;20020;-84
2023/08/29 11:10:18;;;;;;;5.18;1.60;;;19.90;99.90;;;;;;6276938;22;20027;-83
2023/08/29 11:13:06;;;;;;;5.00;1.70;;;20.00;99.90;;;;;;6249784;22;20475;-84
2023/08/29 11:15:50;;;;;;;5.60;1.50;;;20.20;99.90;;;;;;6248503;22;20019;-84
2023/08/29 11:18:26;;;;;;;3.63;1.40;;;20.50;99.90;;;;;;6250376;22;20015;-84
2023/08/29 11:20:55;;;;;;;4.07;1.50;;;20.80;99.90;;;;;;6249459;22;20386;-84
2023/08/29 11:23:22;;;;;;;5.13;1.60;;;20.90;99.90;;;;;;6249010;22;20016;-85
2023/08/29 11:25:51;;;;;;;4.28;1.40;;;20.90;99.90;;;;;;6249349;22;20008;-86
2023/08/29 11:28:18;;;;;;;4.95;1.60;;;20.90;99.90;;;;;;6249688;22;20122;-85
2023/08/29 11:30:48;;;;;;;3.75;1.50;;;20.90;99.90;;;;;;6248393;22;20016;-86
2023/08/29 11:33:15;;;;;;;3.97;1.40;;;21.10;99.90;;;;;;6249920;22;20030;-86
2023/08/29 11:35:50;;;;;;;3.80;1.40;;;21.10;99.90;;;;;;6275714;22;20020;-86
2023/08/29 11:38:32;;;;;;;3.97;1.60;;;21.00;99.90;;;;;;6250321;22;20016;-86
2023/08/29 11:41:00;;;;;;;4.13;1.40;;;20.80;99.90;;;;;;6277399;22;20025;-86
2023/08/29 11:43:26;;;;;;;4.53;1.75;;;20.90;99.90;;;;;;6276480;22;20012;-85
2023/08/29 11:45:54;;;;;;;3.50;1.50;;;21.00;99.90;;;;;;6249363;22;20016;-85
2023/08/29 11:48:32;;;;;;;6.32;1.63;;;21.10;99.90;;;;;;6249864;22;20448;-85
2023/08/29 11:51:07;;;;;;;4.13;1.60;;;21.10;99.90;;;;;;6248163;22;20022;-85
2023/08/29 11:53:37;;;;;;;3.42;1.55;;;21.00;99.90;;;;;;6249759;22;20090;-85
2023/08/29 11:56:04;;;;;;;4.97;1.70;;;21.00;99.90;;;;;;6249619;22;20466;-85
2023/08/29 11:58:32;;;;;;;5.75;1.60;;;20.80;99.90;;;;;;6249110;22;20093;-85
2023/08/29 12:01:01;;;;;;;7.10;2.22;;;20.70;99.90;;;;;;6248888;22;20101;-85
2023/08/29 12:03:27;;;;;;;6.18;1.70;;;20.70;99.90;;;;;;6249761;22;20398;-85
2023/08/29 12:06:12;;;;;;;4.88;1.60;;;20.60;99.90;;;;;;6248330;22;20049;-85
2023/08/29 12:09:03;;;;;;;3.75;1.50;;;20.50;99.90;;;;;;6275962;22;20015;-85
2023/08/29 12:11:41;;;;;;;4.20;1.50;;;20.30;99.90;;;;;;6248825;22;20459;-85
2023/08/29 12:14:27;;;;;;;3.50;1.50;;;20.30;99.90;;;;;;6250339;22;20058;-85
2023/08/29 12:16:53;;;;;;;5.15;1.80;;;20.30;99.90;;;;;;6249328;22;20047;-85
2023/08/29 12:19:35;;;;;;;4.47;1.60;;;20.30;99.90;;;;;;6248993;22;20077;-85
2023/08/29 12:22:00;;;;;;;5.50;1.58;;;20.20;99.90;;;;;;6276963;22;20074;-85
2023/08/29 12:24:32;;;;;;;5.70;1.60;;;20.00;99.90;;;;;;6249596;22;20008;-85
2023/08/29 12:26:59;;;;;;;3.55;1.40;;;19.90;99.90;;;;;;6248193;22;20047;-85
2023/08/29 12:29:25;;;;;;;4.13;1.40;;;19.80;99.90;;;;;;6249389;22;20008;-85
2023/08/29 12:31:51;;;;;;;5.82;1.70;;;19.70;99.90;;;;;;6275503;22;20073;-85
2023/08/29 12:34:16;;;;;;;7.15;2.13;;;19.40;99.90;;;;;;6249122;22;20012;-85
2023/08/29 12:36:51;;;;;;;6.85;2.03;;;18.70;99.90;;;;;;6276307;22;20317;-85
2023/08/29 12:39:17;;;;;;;6.88;2.15;;;18.90;99.90;;;;;;6275759;22;20016;-85
2023/08/29 12:41:49;;;;;;;9.15;2.60;;;18.70;99.90;;;;;;6267760;22;20587;-84
2023/08/29 12:44:14;;;;;;;10.27;3.78;;;18.40;99.90;;;;;;6277092;22;20091;-85
2023/08/29 12:46:40;;;;;;;11.95;4.00;;;18.50;99.90;;;;;;6247582;22;20039;-84
2023/08/29 12:49:07;;;;;;;8.23;2.75;;;17.80;99.90;;;;;;6275948;22;20011;-84
2023/08/29 12:51:32;;;;;;;8.23;2.78;;;17.50;99.90;;;;;;6248923;22;20340;-84
2023/08/29 12:56:56;;;;;;;8.80;2.88;;;16.70;99.90;;;;;;6248880;22;20020;-84
2023/08/29 12:59:23;;;;;;;7.20;2.60;;;17.10;99.90;;;;;;6248851;22;20466;-83
2023/08/29 13:01:49;;;;;;;7.32;2.58;;;17.00;99.90;;;;;;6247649;22;20035;-84
2023/08/29 13:04:15;;;;;;;7.20;2.80;;;16.90;99.90;;;;;;6276467;22;20090;-84
2023/08/29 13:06:41;;;;;;;8.57;2.70;;;16.60;99.90;;;;;;6248802;22;20065;-84
2023/08/29 13:09:18;;;;;;;11.02;3.17;;;16.90;99.90;;;;;;6248148;22;20015;-84
2023/08/29 13:11:56;;;;;;;8.20;3.00;;;16.90;99.90;;;;;;6248753;22;20012;-83
2023/08/29 13:14:31;;;;;;;8.43;2.70;;;17.60;99.90;;;;;;6247976;22;20456;-84
2023/08/29 13:16:56;;;;;;;8.80;2.97;;;16.90;99.90;;;;;;6248640;22;20344;-84
2023/08/29 13:19:23;;;;;;;7.43;2.90;;;17.10;99.90;;;;;;6248767;22;20038;-84
2023/08/29 13:21:50;;;;;;;7.57;2.70;;;16.90;99.90;;;;;;6247636;22;20515;-84
2023/08/29 13:24:18;;;;;;;9.82;3.05;;;16.90;99.90;;;;;;6248953;22;20074;-84
2023/08/29 13:27:10;;;;;;;8.13;3.20;;;16.90;99.90;;;;;;6275949;22;20012;-83
2023/08/29 13:29:56;;;;;;;7.65;2.90;;;16.90;99.90;;;;;;6201443;22;20332;-83
2023/08/29 13:32:21;;;;;;;10.18;3.00;;;17.50;99.90;;;;;;6248082;22;20066;-84
2023/08/29 13:35:04;;;;;;;8.82;2.97;;;17.10;99.90;;;;;;6248150;22;20016;-84
2023/08/29 13:37:30;;;;;;;8.48;3.17;;;17.10;99.90;;;;;;6248312;22;20020;-84
2023/08/29 13:40:10;;;;;;;8.30;3.17;;;17.20;99.90;;;;;;6248636;22;20455;-84
2023/08/29 13:42:36;;;;;;;10.68;3.30;;;17.20;99.90;;;;;;6248594;22;20059;-84
2023/08/29 13:45:04;;;;;;;7.38;2.70;;;17.30;99.90;;;;;;6250851;22;20011;-84
2023/08/29 13:47:41;;;;;;;8.05;2.97;;;17.40;99.90;;;;;;6248213;22;20054;-84
2023/08/29 13:50:07;;;;;;;8.55;2.90;;;17.60;99.90;;;;;;6277559;22;20011;-84
2023/08/29 13:52:33;;;;;;;7.55;2.60;;;17.70;99.90;;;;;;6250819;22;20020;-84
2023/08/29 13:54:59;;;;;;;7.57;2.60;;;17.80;99.90;;;;;;6250686;22;20022;-84
2023/08/29 13:57:37;;;;;;;7.70;3.10;;;17.90;99.90;;;;;;6249764;22;20019;-84
2023/08/29 14:00:07;;;;;;;7.32;3.20;;;17.80;99.90;;;;;;6250607;22;20026;-84
2023/08/29 14:02:33;;;;;;;8.60;3.05;;;17.90;99.90;;;;;;6250585;22;20044;-84
2023/08/29 14:05:08;;;;;;;7.07;2.60;;;18.00;99.90;;;;;;6249678;22;20023;-84
2023/08/29 14:07:34;;;;;;;8.20;2.90;;;18.10;99.90;;;;;;6277066;22;20015;-84
2023/08/29 14:09:59;;;;;;;6.70;2.40;;;18.20;99.90;;;;;;6278150;22;20019;-84
2023/08/29 14:12:34;;;;;;;6.70;2.30;;;18.40;99.90;;;;;;6249683;22;20440;-84
2023/08/29 14:14:59;;;;;;;7.93;2.40;;;18.50;99.90;;;;;;6250064;22;20027;-84
2023/08/29 14:17:31;;;;;;;6.75;2.17;;;18.80;99.90;;;;;;6249843;22;20016;-84
2023/08/29 14:19:56;;;;;;;6.13;2.20;;;18.60;99.90;;;;;;6277657;22;20050;-84
2023/08/29 14:22:23;;;;;;;6.60;2.10;;;18.70;99.90;;;;;;6277463;22;20020;-84
2023/08/29 14:25:04;;;;;;;5.90;2.00;;;18.90;99.90;;;;;;6249388;22;20015;-83
2023/08/29 14:27:30;;;;;;;6.07;2.17;;;19.00;99.90;;;;;;6249734;22;20030;-83
2023/08/29 14:29:55;;;;;;;5.97;2.15;;;19.10;99.90;;;;;;6276050;22;20007;-85
2023/08/29 14:32:39;;;;;;;7.38;2.50;;;19.30;99.90;;;;;;6248472;22;20169;-84
2023/08/29 14:35:05;;;;;;;9.38;2.58;;;19.20;99.90;;;;;;6250024;22;20536;-85
2023/08/29 14:37:31;;;;;;;7.20;2.45;;;19.30;99.90;;;;;;6275954;22;20034;-85
2023/08/29 14:39:57;;;;;;;7.82;2.67;;;19.40;99.90;;;;;;6275421;22;20460;-84
2023/08/29 14:42:34;;;;;;;6.38;2.20;;;19.50;99.90;;;;;;6277147;22;20015;-83
2023/08/29 14:45:00;;;;;;;7.63;2.47;;;19.50;99.90;;;;;;6277755;22;20015;-83
2023/08/29 14:47:26;;;;;;;5.97;2.08;;;19.60;99.90;;;;;;6276463;22;20018;-85
2023/08/29 14:49:55;;;;;;;6.43;2.30;;;19.50;99.90;;;;;;6249755;22;20012;-83
2023/08/29 14:52:21;;;;;;;6.53;1.92;;;19.80;99.90;;;;;;6248561;22;20099;-85
2023/08/29 14:55:05;;;;;;;5.57;2.15;;;19.80;99.90;;;;;;6248507;22;20435;-85
2023/08/29 14:58:16;;;;;;;;;;;20.00;99.90;;;;;;6250358;22;20340;-86
2023/08/29 15:01:48;;;;;;;4.78;1.60;;;19.90;99.90;;;;;;6247201;22;19922;-84
2023/08/29 15:04:38;;;;;;;4.35;1.50;;;20.00;99.90;;;;;;6248745;22;20023;-85
2023/08/29 15:07:14;;;;;;;4.35;1.70;;;19.80;99.90;;;;;;6248486;22;20019;-85
2023/08/29 15:09:43;;;;;;;5.28;1.63;;;19.70;99.90;;;;;;6242417;23;20036;-85
2023/08/29 15:12:09;;;;;;;4.63;1.45;;;19.60;99.90;;;;;;6244562;23;20024;-85
2023/08/29 15:14:43;;;;;;;5.20;1.88;;;19.60;99.90;;;;;;6242320;22;20012;-85
2023/08/29 15:17:19;;;;;;;5.22;1.77;;;19.50;99.90;;;;;;6245714;22;20020;-85
2023/08/29 15:20:13;;;;;;;5.40;1.80;;;19.40;99.90;;;;;;6245405;23;20314;-86
2023/08/29 15:22:45;;;;;;;;;;;19.40;99.90;;;;;;6245266;22;20054;-86
2023/08/29 15:46:07;;;;;;;5.00;1.70;;;19.30;99.90;;;;;;6248773;22;20020;-84
2023/08/29 15:48:56;;;;;;;5.20;1.60;;;19.70;99.90;;;;;;6249759;22;20065;-83
2023/08/29 15:51:50;;;;;;;;;;;;;;;;;;;;;
2023/08/29 15:55:29;;;;;;;6.13;1.63;;;19.80;99.90;;;;;;6275656;22;20019;-83
2023/08/29 15:58:08;;;;;;;6.00;1.80;;;19.60;99.90;;;;;;6245951;22;20024;-85